sensor_id;sensor_type;location;lat;lon;timestamp;temperature;humidity
19544;DHT22;9917;51.256;7.152;2023-04-25T00:01:22;7.50;99.90
19544;DHT22;9917;51.256;7.152;2023-04-25T00:08:40;7.40;99.90
19544;DHT22;9917;51.256;7.152;2023-04-25T00:11:06;7.40;99.90
19544;DHT22;9917;51.256;7.152;2023-04-25T00:15:58;7.60;99.90
19544;DHT22;9917;51.256;7.152;2023-04-25T00:18:25;7.80;99.90
19544;DHT22;9917;51.256;7.152;2023-04-25T00:30:35;7.70;99.90
19544;DHT22;9917;51.256;7.152;2023-04-25T00:33:01;7.70;99.90
19544;DHT22;9917;51.256;7.152;2023-04-25T00:35:28;7.90;99.90
19544;DHT22;9917;51.256;7.152;2023-04-25T00:40:21;7.90;99.90
19544;DHT22;9917;51.256;7.152;2023-04-25T00:45:14;7.90;99.90
19544;DHT22;9917;51.256;7.152;2023-04-25T00:47:40;7.70;99.90
19544;DHT22;9917;51.256;7.152;2023-04-25T00:50:07;7.90;99.90
19544;DHT22;9917;51.256;7.152;2023-04-25T00:52:35;7.70;99.90
19544;DHT22;9917;51.256;7.152;2023-04-25T00:55:01;8.20;99.90
19544;DHT22;9917;51.256;7.152;2023-04-25T00:57:27;7.90;99.90
19544;DHT22;9917;51.256;7.152;2023-04-25T00:59:53;8.00;99.90
19544;DHT22;9917;51.256;7.152;2023-04-25T01:09:41;8.00;99.90
19544;DHT22;9917;51.256;7.152;2023-04-25T01:14:36;8.10;99.90
19544;DHT22;9917;51.256;7.152;2023-04-25T01:17:02;8.30;99.90
19544;DHT22;9917;51.256;7.152;2023-04-25T01:19:30;8.10;99.90
19544;DHT22;9917;51.256;7.152;2023-04-25T01:22:00;8.10;99.90
19544;DHT22;9917;51.256;7.152;2023-04-25T01:24:27;8.40;99.90
19544;DHT22;9917;51.256;7.152;2023-04-25T01:26:53;8.00;99.90
19544;DHT22;9917;51.256;7.152;2023-04-25T01:29:20;8.10;99.90
19544;DHT22;9917;51.256;7.152;2023-04-25T01:31:49;8.00;99.90
19544;DHT22;9917;51.256;7.152;2023-04-25T01:36:42;7.90;99.90
19544;DHT22;9917;51.256;7.152;2023-04-25T01:39:09;8.00;99.90
19544;DHT22;9917;51.256;7.152;2023-04-25T01:46:27;8.30;99.90
19544;DHT22;9917;51.256;7.152;2023-04-25T01:53:45;8.20;99.90
19544;DHT22;9917;51.256;7.152;2023-04-25T01:56:12;7.90;99.90
19544;DHT22;9917;51.256;7.152;2023-04-25T02:01:04;7.50;99.90
19544;DHT22;9917;51.256;7.152;2023-04-25T02:03:31;7.70;99.90
19544;DHT22;9917;51.256;7.152;2023-04-25T02:05:57;7.70;99.90
19544;DHT22;9917;51.256;7.152;2023-04-25T02:08:23;8.20;99.90
19544;DHT22;9917;51.256;7.152;2023-04-25T02:10:49;8.00;99.90
19544;DHT22;9917;51.256;7.152;2023-04-25T02:13:16;7.80;99.90
19544;DHT22;9917;51.256;7.152;2023-04-25T02:15:41;7.80;99.90
19544;DHT22;9917;51.256;7.152;2023-04-25T02:20:33;7.20;99.90
19544;DHT22;9917;51.256;7.152;2023-04-25T02:22:59;7.70;99.90
19544;DHT22;9917;51.256;7.152;2023-04-25T02:25:25;7.80;99.90
19544;DHT22;9917;51.256;7.152;2023-04-25T02:30:18;7.80;99.90
19544;DHT22;9917;51.256;7.152;2023-04-25T02:37:39;7.90;99.90
19544;DHT22;9917;51.256;7.152;2023-04-25T02:40:09;7.80;99.90
19544;DHT22;9917;51.256;7.152;2023-04-25T02:42:36;7.80;99.90
19544;DHT22;9917;51.256;7.152;2023-04-25T02:47:30;7.10;99.90
19544;DHT22;9917;51.256;7.152;2023-04-25T02:49:56;7.70;99.90
19544;DHT22;9917;51.256;7.152;2023-04-25T02:54:47;7.60;99.90
19544;DHT22;9917;51.256;7.152;2023-04-25T02:57:16;7.90;99.90
19544;DHT22;9917;51.256;7.152;2023-04-25T03:02:08;7.70;99.90
19544;DHT22;9917;51.256;7.152;2023-04-25T03:04:35;7.70;99.90
19544;DHT22;9917;51.256;7.152;2023-04-25T03:09:26;7.50;99.90
19544;DHT22;9917;51.256;7.152;2023-04-25T03:11:55;7.80;99.90
19544;DHT22;9917;51.256;7.152;2023-04-25T03:14:21;8.00;99.90
19544;DHT22;9917;51.256;7.152;2023-04-25T03:16:50;8.10;99.90
19544;DHT22;9917;51.256;7.152;2023-04-25T03:21:43;7.60;99.90
19544;DHT22;9917;51.256;7.152;2023-04-25T03:26:36;8.00;99.90
19544;DHT22;9917;51.256;7.152;2023-04-25T03:29:02;7.50;99.90
19544;DHT22;9917;51.256;7.152;2023-04-25T03:31:28;7.50;99.90
19544;DHT22;9917;51.256;7.152;2023-04-25T03:36:20;7.20;99.90
19544;DHT22;9917;51.256;7.152;2023-04-25T03:38:47;7.50;99.90
19544;DHT22;9917;51.256;7.152;2023-04-25T03:48:30;7.70;99.90
19544;DHT22;9917;51.256;7.152;2023-04-25T03:50:56;7.60;99.90
19544;DHT22;9917;51.256;7.152;2023-04-25T03:55:50;8.80;99.90
19544;DHT22;9917;51.256;7.152;2023-04-25T03:58:15;7.70;99.90
19544;DHT22;9917;51.256;7.152;2023-04-25T04:00:41;10.40;99.90
19544;DHT22;9917;51.256;7.152;2023-04-25T04:03:31;7.80;99.90
19544;DHT22;9917;51.256;7.152;2023-04-25T04:08:24;7.60;99.90
19544;DHT22;9917;51.256;7.152;2023-04-25T04:10:51;7.70;99.90
19544;DHT22;9917;51.256;7.152;2023-04-25T04:15:43;7.70;99.90
19544;DHT22;9917;51.256;7.152;2023-04-25T04:18:09;7.70;99.90
19544;DHT22;9917;51.256;7.152;2023-04-25T04:20:34;7.70;99.90
19544;DHT22;9917;51.256;7.152;2023-04-25T04:27:54;7.70;99.90
19544;DHT22;9917;51.256;7.152;2023-04-25T04:32:45;8.00;99.90
19544;DHT22;9917;51.256;7.152;2023-04-25T04:37:37;7.60;99.90
19544;DHT22;9917;51.256;7.152;2023-04-25T04:40:04;7.70;99.90
19544;DHT22;9917;51.256;7.152;2023-04-25T04:42:38;7.60;99.90
19544;DHT22;9917;51.256;7.152;2023-04-25T04:45:07;7.60;99.90
19544;DHT22;9917;51.256;7.152;2023-04-25T04:47:32;8.10;99.90
19544;DHT22;9917;51.256;7.152;2023-04-25T04:52:24;8.00;99.90
19544;DHT22;9917;51.256;7.152;2023-04-25T04:54:50;7.90;99.90
19544;DHT22;9917;51.256;7.152;2023-04-25T04:57:16;8.10;99.90
19544;DHT22;9917;51.256;7.152;2023-04-25T04:59:41;8.30;99.90
19544;DHT22;9917;51.256;7.152;2023-04-25T05:02:08;7.90;99.90
19544;DHT22;9917;51.256;7.152;2023-04-25T05:04:34;7.80;99.90
19544;DHT22;9917;51.256;7.152;2023-04-25T05:07:00;7.70;99.90
19544;DHT22;9917;51.256;7.152;2023-04-25T05:09:27;8.20;99.90
19544;DHT22;9917;51.256;7.152;2023-04-25T05:14:18;7.90;99.90
19544;DHT22;9917;51.256;7.152;2023-04-25T05:19:14;8.10;99.90
19544;DHT22;9917;51.256;7.152;2023-04-25T05:21:40;8.40;99.90
19544;DHT22;9917;51.256;7.152;2023-04-25T05:24:05;8.00;99.90
19544;DHT22;9917;51.256;7.152;2023-04-25T05:26:31;8.20;99.90
19544;DHT22;9917;51.256;7.152;2023-04-25T05:31:23;8.50;99.90
19544;DHT22;9917;51.256;7.152;2023-04-25T05:33:49;8.40;99.90
19544;DHT22;9917;51.256;7.152;2023-04-25T05:36:17;8.10;99.90
19544;DHT22;9917;51.256;7.152;2023-04-25T05:38:43;8.10;99.90
19544;DHT22;9917;51.256;7.152;2023-04-25T05:46:01;8.10;99.90
19544;DHT22;9917;51.256;7.152;2023-04-25T05:48:42;8.20;99.90
19544;DHT22;9917;51.256;7.152;2023-04-25T05:53:38;8.30;99.90
19544;DHT22;9917;51.256;7.152;2023-04-25T05:56:04;8.30;99.90
19544;DHT22;9917;51.256;7.152;2023-04-25T05:58:30;8.60;99.90
19544;DHT22;9917;51.256;7.152;2023-04-25T06:03:22;8.60;99.90
19544;DHT22;9917;51.256;7.152;2023-04-25T06:06:09;8.30;99.90
19544;DHT22;9917;51.256;7.152;2023-04-25T06:08:36;8.30;99.90
19544;DHT22;9917;51.256;7.152;2023-04-25T06:11:06;8.60;99.90
19544;DHT22;9917;51.256;7.152;2023-04-25T06:13:38;8.50;99.90
19544;DHT22;9917;51.256;7.152;2023-04-25T06:16:13;8.70;99.90
19544;DHT22;9917;51.256;7.152;2023-04-25T06:18:39;9.00;99.90
19544;DHT22;9917;51.256;7.152;2023-04-25T06:26:00;9.30;99.90
19544;DHT22;9917;51.256;7.152;2023-04-25T06:28:27;9.80;99.90
19544;DHT22;9917;51.256;7.152;2023-04-25T06:31:01;9.60;99.90
19544;DHT22;9917;51.256;7.152;2023-04-25T06:36:02;10.40;99.90
19544;DHT22;9917;51.256;7.152;2023-04-25T06:38:28;10.10;99.90
19544;DHT22;9917;51.256;7.152;2023-04-25T06:41:03;10.30;99.90
19544;DHT22;9917;51.256;7.152;2023-04-25T06:43:29;10.30;99.90
19544;DHT22;9917;51.256;7.152;2023-04-25T06:45:57;10.50;99.90
19544;DHT22;9917;51.256;7.152;2023-04-25T06:50:49;10.30;99.90
19544;DHT22;9917;51.256;7.152;2023-04-25T06:53:15;10.60;99.90
19544;DHT22;9917;51.256;7.152;2023-04-25T06:55:46;10.60;99.90
19544;DHT22;9917;51.256;7.152;2023-04-25T06:58:13;10.60;99.90
19544;DHT22;9917;51.256;7.152;2023-04-25T07:00:45;11.20;99.90
19544;DHT22;9917;51.256;7.152;2023-04-25T07:03:12;10.90;99.90
19544;DHT22;9917;51.256;7.152;2023-04-25T07:08:04;11.20;99.90
19544;DHT22;9917;51.256;7.152;2023-04-25T07:10:29;11.00;99.90
19544;DHT22;9917;51.256;7.152;2023-04-25T07:12:55;11.30;99.90
19544;DHT22;9917;51.256;7.152;2023-04-25T07:15:25;11.10;99.90
19544;DHT22;9917;51.256;7.152;2023-04-25T07:20:28;11.60;99.90
19544;DHT22;9917;51.256;7.152;2023-04-25T07:22:53;11.50;99.90
19544;DHT22;9917;51.256;7.152;2023-04-25T07:25:19;11.50;99.90
19544;DHT22;9917;51.256;7.152;2023-04-25T07:28:02;11.50;99.90
19544;DHT22;9917;51.256;7.152;2023-04-25T07:30:31;11.50;99.90
19544;DHT22;9917;51.256;7.152;2023-04-25T07:32:56;11.40;99.90
19544;DHT22;9917;51.256;7.152;2023-04-25T07:35:29;11.40;99.90
19544;DHT22;9917;51.256;7.152;2023-04-25T07:40:22;11.20;99.90
19544;DHT22;9917;51.256;7.152;2023-04-25T07:42:47;11.00;99.90
19544;DHT22;9917;51.256;7.152;2023-04-25T07:45:13;10.90;99.90
19544;DHT22;9917;51.256;7.152;2023-04-25T07:47:40;10.70;99.90
19544;DHT22;9917;51.256;7.152;2023-04-25T07:50:07;10.70;99.90
19544;DHT22;9917;51.256;7.152;2023-04-25T07:52:33;10.50;99.90
19544;DHT22;9917;51.256;7.152;2023-04-25T07:54:58;11.00;99.90
19544;DHT22;9917;51.256;7.152;2023-04-25T07:57:27;10.60;99.90
19544;DHT22;9917;51.256;7.152;2023-04-25T08:02:19;11.70;99.90
19544;DHT22;9917;51.256;7.152;2023-04-25T08:04:46;11.70;99.90
19544;DHT22;9917;51.256;7.152;2023-04-25T08:07:12;12.10;99.90
19544;DHT22;9917;51.256;7.152;2023-04-25T08:09:37;12.70;99.90
19544;DHT22;9917;51.256;7.152;2023-04-25T08:12:03;13.40;99.90
19544;DHT22;9917;51.256;7.152;2023-04-25T08:14:30;13.80;99.90
19544;DHT22;9917;51.256;7.152;2023-04-25T08:16:55;13.80;99.90
19544;DHT22;9917;51.256;7.152;2023-04-25T08:19:21;13.70;99.90
19544;DHT22;9917;51.256;7.152;2023-04-25T08:21:48;13.30;99.90
19544;DHT22;9917;51.256;7.152;2023-04-25T08:24:14;13.50;99.90
19544;DHT22;9917;51.256;7.152;2023-04-25T08:29:06;16.90;96.80
19544;DHT22;9917;51.256;7.152;2023-04-25T08:31:32;18.90;89.20
19544;DHT22;9917;51.256;7.152;2023-04-25T08:36:23;18.90;76.00
19544;DHT22;9917;51.256;7.152;2023-04-25T08:38:51;18.00;74.10
19544;DHT22;9917;51.256;7.152;2023-04-25T08:41:16;17.00;74.50
19544;DHT22;9917;51.256;7.152;2023-04-25T08:43:48;16.00;80.00
19544;DHT22;9917;51.256;7.152;2023-04-25T08:46:17;15.70;80.40
19544;DHT22;9917;51.256;7.152;2023-04-25T08:48:45;15.20;81.90
19544;DHT22;9917;51.256;7.152;2023-04-25T08:51:15;14.70;80.60
19544;DHT22;9917;51.256;7.152;2023-04-25T08:53:41;14.90;80.10
19544;DHT22;9917;51.256;7.152;2023-04-25T08:56:15;14.90;80.30
19544;DHT22;9917;51.256;7.152;2023-04-25T08:58:41;14.80;81.50
19544;DHT22;9917;51.256;7.152;2023-04-25T09:03:33;14.10;83.80
19544;DHT22;9917;51.256;7.152;2023-04-25T09:05:59;13.90;84.40
19544;DHT22;9917;51.256;7.152;2023-04-25T09:08:25;13.40;85.50
19544;DHT22;9917;51.256;7.152;2023-04-25T09:10:51;13.50;85.00
19544;DHT22;9917;51.256;7.152;2023-04-25T09:13:26;13.90;86.80
19544;DHT22;9917;51.256;7.152;2023-04-25T09:15:53;13.80;86.80
19544;DHT22;9917;51.256;7.152;2023-04-25T09:18:23;14.20;80.90
19544;DHT22;9917;51.256;7.152;2023-04-25T09:20:48;14.30;81.10
19544;DHT22;9917;51.256;7.152;2023-04-25T09:25:40;15.40;80.40
19544;DHT22;9917;51.256;7.152;2023-04-25T09:28:07;18.10;82.60
19544;DHT22;9917;51.256;7.152;2023-04-25T09:30:35;22.00;70.70
19544;DHT22;9917;51.256;7.152;2023-04-25T09:33:05;24.50;57.20
19544;DHT22;9917;51.256;7.152;2023-04-25T09:35:35;23.30;50.90
19544;DHT22;9917;51.256;7.152;2023-04-25T09:38:01;23.30;51.00
19544;DHT22;9917;51.256;7.152;2023-04-25T09:40:27;22.00;51.50
19544;DHT22;9917;51.256;7.152;2023-04-25T09:42:52;20.60;56.10
19544;DHT22;9917;51.256;7.152;2023-04-25T09:45:29;19.00;59.60
19544;DHT22;9917;51.256;7.152;2023-04-25T09:47:57;18.90;60.80
19544;DHT22;9917;51.256;7.152;2023-04-25T09:50:28;18.30;59.50
19544;DHT22;9917;51.256;7.152;2023-04-25T09:53:02;18.00;59.30
19544;DHT22;9917;51.256;7.152;2023-04-25T09:55:29;17.90;60.30
19544;DHT22;9917;51.256;7.152;2023-04-25T09:57:56;17.90;61.30
19544;DHT22;9917;51.256;7.152;2023-04-25T10:00:26;19.10;59.80
19544;DHT22;9917;51.256;7.152;2023-04-25T10:03:01;18.70;56.10
19544;DHT22;9917;51.256;7.152;2023-04-25T10:05:28;18.90;55.60
19544;DHT22;9917;51.256;7.152;2023-04-25T10:07:59;18.70;56.30
19544;DHT22;9917;51.256;7.152;2023-04-25T10:10:28;18.30;55.40
19544;DHT22;9917;51.256;7.152;2023-04-25T10:12:55;18.50;57.30
19544;DHT22;9917;51.256;7.152;2023-04-25T10:15:21;22.50;51.40
19544;DHT22;9917;51.256;7.152;2023-04-25T10:17:47;22.40;51.10
19544;DHT22;9917;51.256;7.152;2023-04-25T10:20:15;23.30;48.20
19544;DHT22;9917;51.256;7.152;2023-04-25T10:22:43;23.10;45.00
19544;DHT22;9917;51.256;7.152;2023-04-25T10:25:10;21.40;45.80
19544;DHT22;9917;51.256;7.152;2023-04-25T10:27:36;21.30;46.20
19544;DHT22;9917;51.256;7.152;2023-04-25T10:30:03;20.30;47.10
19544;DHT22;9917;51.256;7.152;2023-04-25T10:32:31;19.30;49.70
19544;DHT22;9917;51.256;7.152;2023-04-25T10:34:56;18.30;51.50
19544;DHT22;9917;51.256;7.152;2023-04-25T10:37:24;17.40;52.50
19544;DHT22;9917;51.256;7.152;2023-04-25T10:39:50;16.80;53.10
19544;DHT22;9917;51.256;7.152;2023-04-25T10:42:15;16.50;54.40
19544;DHT22;9917;51.256;7.152;2023-04-25T10:45:01;16.50;54.90
19544;DHT22;9917;51.256;7.152;2023-04-25T10:47:35;18.00;55.20
19544;DHT22;9917;51.256;7.152;2023-04-25T10:50:05;20.80;53.10
19544;DHT22;9917;51.256;7.152;2023-04-25T10:52:33;24.50;46.90
19544;DHT22;9917;51.256;7.152;2023-04-25T10:54:59;26.00;41.50
19544;DHT22;9917;51.256;7.152;2023-04-25T10:57:29;27.70;37.10
19544;DHT22;9917;51.256;7.152;2023-04-25T10:59:58;27.50;35.80
19544;DHT22;9917;51.256;7.152;2023-04-25T11:02:26;26.70;36.90
19544;DHT22;9917;51.256;7.152;2023-04-25T11:04:53;28.70;34.00
19544;DHT22;9917;51.256;7.152;2023-04-25T11:07:26;28.60;34.40
19544;DHT22;9917;51.256;7.152;2023-04-25T11:09:55;29.80;32.10
19544;DHT22;9917;51.256;7.152;2023-04-25T11:12:21;29.80;31.60
19544;DHT22;9917;51.256;7.152;2023-04-25T11:14:49;30.20;31.90
19544;DHT22;9917;51.256;7.152;2023-04-25T11:17:15;31.30;30.40
19544;DHT22;9917;51.256;7.152;2023-04-25T11:19:41;31.20;29.40
19544;DHT22;9917;51.256;7.152;2023-04-25T11:22:06;30.30;29.70
19544;DHT22;9917;51.256;7.152;2023-04-25T11:24:34;31.20;28.00
19544;DHT22;9917;51.256;7.152;2023-04-25T11:27:02;31.00;27.90
19544;DHT22;9917;51.256;7.152;2023-04-25T11:29:28;27.60;29.00
19544;DHT22;9917;51.256;7.152;2023-04-25T11:31:55;27.40;29.80
19544;DHT22;9917;51.256;7.152;2023-04-25T11:34:21;25.50;31.50
19544;DHT22;9917;51.256;7.152;2023-04-25T11:36:47;24.60;31.70
19544;DHT22;9917;51.256;7.152;2023-04-25T11:39:13;24.50;32.50
19544;DHT22;9917;51.256;7.152;2023-04-25T11:41:39;21.90;35.30
19544;DHT22;9917;51.256;7.152;2023-04-25T11:44:06;20.10;38.40
19544;DHT22;9917;51.256;7.152;2023-04-25T11:46:33;19.10;40.90
19544;DHT22;9917;51.256;7.152;2023-04-25T11:48:59;18.00;43.40
19544;DHT22;9917;51.256;7.152;2023-04-25T11:51:25;17.10;46.50
19544;DHT22;9917;51.256;7.152;2023-04-25T11:56:17;16.00;51.40
19544;DHT22;9917;51.256;7.152;2023-04-25T11:58:56;16.00;52.00
19544;DHT22;9917;51.256;7.152;2023-04-25T12:01:27;16.00;54.50
19544;DHT22;9917;51.256;7.152;2023-04-25T12:03:53;17.20;53.80
19544;DHT22;9917;51.256;7.152;2023-04-25T12:06:19;18.40;52.30
19544;DHT22;9917;51.256;7.152;2023-04-25T12:08:59;19.10;49.40
19544;DHT22;9917;51.256;7.152;2023-04-25T12:11:25;19.10;49.70
19544;DHT22;9917;51.256;7.152;2023-04-25T12:13:52;19.00;48.10
19544;DHT22;9917;51.256;7.152;2023-04-25T12:18:47;18.90;47.80
19544;DHT22;9917;51.256;7.152;2023-04-25T12:23:39;19.10;46.60
19544;DHT22;9917;51.256;7.152;2023-04-25T12:26:05;19.40;45.70
19544;DHT22;9917;51.256;7.152;2023-04-25T12:28:32;19.50;45.70
19544;DHT22;9917;51.256;7.152;2023-04-25T12:30:59;19.90;45.30
19544;DHT22;9917;51.256;7.152;2023-04-25T12:33:27;20.10;45.80
19544;DHT22;9917;51.256;7.152;2023-04-25T12:35:54;21.00;43.70
19544;DHT22;9917;51.256;7.152;2023-04-25T12:38:21;20.50;43.80
19544;DHT22;9917;51.256;7.152;2023-04-25T12:40:47;19.90;44.90
19544;DHT22;9917;51.256;7.152;2023-04-25T12:43:13;18.60;45.60
19544;DHT22;9917;51.256;7.152;2023-04-25T12:45:39;18.40;46.60
19544;DHT22;9917;51.256;7.152;2023-04-25T12:48:29;17.70;48.30
19544;DHT22;9917;51.256;7.152;2023-04-25T12:50:56;16.30;49.50
19544;DHT22;9917;51.256;7.152;2023-04-25T12:53:23;15.40;51.70
19544;DHT22;9917;51.256;7.152;2023-04-25T12:55:49;14.90;53.20
19544;DHT22;9917;51.256;7.152;2023-04-25T12:58:20;14.10;54.10
19544;DHT22;9917;51.256;7.152;2023-04-25T13:00:46;13.70;55.70
19544;DHT22;9917;51.256;7.152;2023-04-25T13:03:21;13.50;57.20
19544;DHT22;9917;51.256;7.152;2023-04-25T13:08:15;12.90;57.10
19544;DHT22;9917;51.256;7.152;2023-04-25T13:10:41;12.70;57.80
19544;DHT22;9917;51.256;7.152;2023-04-25T13:13:06;12.70;59.20
19544;DHT22;9917;51.256;7.152;2023-04-25T13:15:34;12.60;59.10
19544;DHT22;9917;51.256;7.152;2023-04-25T13:18:00;12.70;59.00
19544;DHT22;9917;51.256;7.152;2023-04-25T13:22:52;14.20;59.40
19544;DHT22;9917;51.256;7.152;2023-04-25T13:25:25;16.90;58.50
19544;DHT22;9917;51.256;7.152;2023-04-25T13:27:51;19.90;53.60
19544;DHT22;9917;51.256;7.152;2023-04-25T13:30:17;21.60;50.10
19544;DHT22;9917;51.256;7.152;2023-04-25T13:35:11;24.10;41.40
19544;DHT22;9917;51.256;7.152;2023-04-25T13:37:37;24.50;39.00
19544;DHT22;9917;51.256;7.152;2023-04-25T13:40:06;24.60;40.00
19544;DHT22;9917;51.256;7.152;2023-04-25T13:42:34;24.40;37.80
19544;DHT22;9917;51.256;7.152;2023-04-25T13:45:00;23.60;37.40
19544;DHT22;9917;51.256;7.152;2023-04-25T13:47:27;21.90;38.90
19544;DHT22;9917;51.256;7.152;2023-04-25T13:49:53;20.60;40.60
19544;DHT22;9917;51.256;7.152;2023-04-25T13:52:19;20.00;42.10
19544;DHT22;9917;51.256;7.152;2023-04-25T13:57:12;17.90;45.60
19544;DHT22;9917;51.256;7.152;2023-04-25T13:59:40;18.00;47.00
19544;DHT22;9917;51.256;7.152;2023-04-25T14:02:06;17.40;48.60
19544;DHT22;9917;51.256;7.152;2023-04-25T14:04:32;16.10;57.50
19544;DHT22;9917;51.256;7.152;2023-04-25T14:06:57;15.40;64.10
19544;DHT22;9917;51.256;7.152;2023-04-25T14:09:23;15.10;66.60
19544;DHT22;9917;51.256;7.152;2023-04-25T14:14:15;13.60;73.60
19544;DHT22;9917;51.256;7.152;2023-04-25T14:16:45;12.90;75.10
19544;DHT22;9917;51.256;7.152;2023-04-25T14:21:37;14.20;74.10
19544;DHT22;9917;51.256;7.152;2023-04-25T14:24:03;15.40;70.90
19544;DHT22;9917;51.256;7.152;2023-04-25T14:26:29;16.40;68.30
19544;DHT22;9917;51.256;7.152;2023-04-25T14:28:55;16.50;62.50
19544;DHT22;9917;51.256;7.152;2023-04-25T14:31:21;17.00;60.60
19544;DHT22;9917;51.256;7.152;2023-04-25T14:33:48;17.00;60.20
19544;DHT22;9917;51.256;7.152;2023-04-25T14:36:15;17.50;58.50
19544;DHT22;9917;51.256;7.152;2023-04-25T14:38:43;17.30;58.80
19544;DHT22;9917;51.256;7.152;2023-04-25T14:41:08;17.10;60.40
19544;DHT22;9917;51.256;7.152;2023-04-25T14:43:34;17.10;61.80
19544;DHT22;9917;51.256;7.152;2023-04-25T14:46:01;16.40;63.30
19544;DHT22;9917;51.256;7.152;2023-04-25T14:48:28;15.90;62.20
19544;DHT22;9917;51.256;7.152;2023-04-25T14:50:56;16.00;61.30
19544;DHT22;9917;51.256;7.152;2023-04-25T14:53:21;16.10;61.80
19544;DHT22;9917;51.256;7.152;2023-04-25T14:55:47;16.60;61.10
19544;DHT22;9917;51.256;7.152;2023-04-25T15:00:40;17.90;58.40
19544;DHT22;9917;51.256;7.152;2023-04-25T15:03:06;18.70;57.10
19544;DHT22;9917;51.256;7.152;2023-04-25T15:05:32;19.50;54.90
19544;DHT22;9917;51.256;7.152;2023-04-25T15:07:59;19.20;55.00
19544;DHT22;9917;51.256;7.152;2023-04-25T15:10:25;18.90;54.10
19544;DHT22;9917;51.256;7.152;2023-04-25T15:12:51;18.00;55.00
19544;DHT22;9917;51.256;7.152;2023-04-25T15:17:42;17.10;58.00
19544;DHT22;9917;51.256;7.152;2023-04-25T15:20:10;16.80;57.80
19544;DHT22;9917;51.256;7.152;2023-04-25T15:22:36;16.70;56.00
19544;DHT22;9917;51.256;7.152;2023-04-25T15:25:03;16.40;59.00
19544;DHT22;9917;51.256;7.152;2023-04-25T15:29:55;15.20;60.20
19544;DHT22;9917;51.256;7.152;2023-04-25T15:32:41;15.00;60.30
19544;DHT22;9917;51.256;7.152;2023-04-25T15:35:07;14.60;63.20
19544;DHT22;9917;51.256;7.152;2023-04-25T15:37:33;14.50;60.60
19544;DHT22;9917;51.256;7.152;2023-04-25T15:40:03;14.40;62.70
19544;DHT22;9917;51.256;7.152;2023-04-25T15:42:29;14.50;63.80
19544;DHT22;9917;51.256;7.152;2023-04-25T15:44:55;14.50;62.70
19544;DHT22;9917;51.256;7.152;2023-04-25T15:47:21;14.50;62.70
19544;DHT22;9917;51.256;7.152;2023-04-25T15:49:46;14.70;60.90
19544;DHT22;9917;51.256;7.152;2023-04-25T15:57:05;14.40;62.30
19544;DHT22;9917;51.256;7.152;2023-04-25T15:59:31;14.60;61.30
19544;DHT22;9917;51.256;7.152;2023-04-25T16:01:57;14.80;60.30
19544;DHT22;9917;51.256;7.152;2023-04-25T16:04:23;14.70;58.80
19544;DHT22;9917;51.256;7.152;2023-04-25T16:09:15;14.50;59.90
19544;DHT22;9917;51.256;7.152;2023-04-25T16:14:08;14.50;59.10
19544;DHT22;9917;51.256;7.152;2023-04-25T16:16:34;13.80;59.40
19544;DHT22;9917;51.256;7.152;2023-04-25T16:18:59;13.70;59.30
19544;DHT22;9917;51.256;7.152;2023-04-25T16:21:26;13.60;58.40
19544;DHT22;9917;51.256;7.152;2023-04-25T16:23:52;13.40;59.70
19544;DHT22;9917;51.256;7.152;2023-04-25T16:26:17;13.20;60.00
19544;DHT22;9917;51.256;7.152;2023-04-25T16:28:43;13.20;59.40
19544;DHT22;9917;51.256;7.152;2023-04-25T16:31:10;13.00;59.90
19544;DHT22;9917;51.256;7.152;2023-04-25T16:36:02;12.80;60.20
19544;DHT22;9917;51.256;7.152;2023-04-25T16:38:28;12.90;59.00
19544;DHT22;9917;51.256;7.152;2023-04-25T16:43:19;12.80;59.60
19544;DHT22;9917;51.256;7.152;2023-04-25T16:48:13;12.20;60.30
19544;DHT22;9917;51.256;7.152;2023-04-25T16:57:56;11.60;62.00
19544;DHT22;9917;51.256;7.152;2023-04-25T17:00:22;11.50;62.50
19544;DHT22;9917;51.256;7.152;2023-04-25T17:02:48;11.50;63.60
19544;DHT22;9917;51.256;7.152;2023-04-25T17:05:15;11.50;62.70
19544;DHT22;9917;51.256;7.152;2023-04-25T17:07:41;11.70;64.00
19544;DHT22;9917;51.256;7.152;2023-04-25T17:10:07;11.50;63.90
19544;DHT22;9917;51.256;7.152;2023-04-25T17:17:25;11.10;63.40
19544;DHT22;9917;51.256;7.152;2023-04-25T17:19:51;11.00;63.00
19544;DHT22;9917;51.256;7.152;2023-04-25T17:22:18;11.00;63.70
19544;DHT22;9917;51.256;7.152;2023-04-25T17:24:43;10.90;63.90
19544;DHT22;9917;51.256;7.152;2023-04-25T17:27:10;11.00;62.90
19544;DHT22;9917;51.256;7.152;2023-04-25T17:29:36;11.20;63.30
19544;DHT22;9917;51.256;7.152;2023-04-25T17:32:02;10.80;63.50
19544;DHT22;9917;51.256;7.152;2023-04-25T17:34:28;12.60;62.50
19544;DHT22;9917;51.256;7.152;2023-04-25T17:36:53;11.10;62.70
19544;DHT22;9917;51.256;7.152;2023-04-25T17:39:20;11.10;63.10
19544;DHT22;9917;51.256;7.152;2023-04-25T17:41:46;11.00;63.50
19544;DHT22;9917;51.256;7.152;2023-04-25T17:44:12;11.00;63.70
19544;DHT22;9917;51.256;7.152;2023-04-25T17:46:39;11.10;64.70
19544;DHT22;9917;51.256;7.152;2023-04-25T17:49:05;11.20;65.20
19544;DHT22;9917;51.256;7.152;2023-04-25T17:51:32;11.20;65.30
19544;DHT22;9917;51.256;7.152;2023-04-25T17:53:57;11.10;64.80
19544;DHT22;9917;51.256;7.152;2023-04-25T17:56:29;11.20;66.10
19544;DHT22;9917;51.256;7.152;2023-04-25T17:58:57;10.60;64.70
19544;DHT22;9917;51.256;7.152;2023-04-25T18:06:16;13.80;68.00
19544;DHT22;9917;51.256;7.152;2023-04-25T18:11:07;11.40;67.40
19544;DHT22;9917;51.256;7.152;2023-04-25T18:13:34;11.00;67.10
19544;DHT22;9917;51.256;7.152;2023-04-25T18:16:00;11.80;67.90
19544;DHT22;9917;51.256;7.152;2023-04-25T18:20:52;11.00;68.20
19544;DHT22;9917;51.256;7.152;2023-04-25T18:28:10;10.80;68.90
19544;DHT22;9917;51.256;7.152;2023-04-25T18:30:37;10.70;69.10
19544;DHT22;9917;51.256;7.152;2023-04-25T18:35:29;10.70;68.40
19544;DHT22;9917;51.256;7.152;2023-04-25T18:45:13;10.40;69.00
19544;DHT22;9917;51.256;7.152;2023-04-25T18:47:40;10.70;69.60
19544;DHT22;9917;51.256;7.152;2023-04-25T18:50:07;10.60;69.00
19544;DHT22;9917;51.256;7.152;2023-04-25T19:04:44;10.50;70.20
19544;DHT22;9917;51.256;7.152;2023-04-25T19:07:10;10.30;70.80
19544;DHT22;9917;51.256;7.152;2023-04-25T19:14:29;10.20;71.90
19544;DHT22;9917;51.256;7.152;2023-04-25T19:19:24;10.20;72.40
19544;DHT22;9917;51.256;7.152;2023-04-25T19:21:51;9.60;71.90
19544;DHT22;9917;51.256;7.152;2023-04-25T19:26:44;10.10;72.00
19544;DHT22;9917;51.256;7.152;2023-04-25T19:29:11;10.00;72.00
19544;DHT22;9917;51.256;7.152;2023-04-25T19:31:38;9.90;72.50
19544;DHT22;9917;51.256;7.152;2023-04-25T19:38:57;9.20;75.20
19544;DHT22;9917;51.256;7.152;2023-04-25T19:48:41;8.70;77.60
19544;DHT22;9917;51.256;7.152;2023-04-25T19:56:00;8.50;79.50
19544;DHT22;9917;51.256;7.152;2023-04-25T19:58:26;8.50;79.80
19544;DHT22;9917;51.256;7.152;2023-04-25T20:10:36;8.30;81.80
19544;DHT22;9917;51.256;7.152;2023-04-25T20:13:03;8.20;82.40
19544;DHT22;9917;51.256;7.152;2023-04-25T20:27:55;8.10;83.60
19544;DHT22;9917;51.256;7.152;2023-04-25T20:30:22;8.00;84.00
19544;DHT22;9917;51.256;7.152;2023-04-25T20:40:07;7.60;86.50
19544;DHT22;9917;51.256;7.152;2023-04-25T20:47:27;7.50;88.60
19544;DHT22;9917;51.256;7.152;2023-04-25T20:52:19;7.40;88.90
19544;DHT22;9917;51.256;7.152;2023-04-25T21:04:30;7.30;90.40